Time;durP1;ratioP1;P1;durP2;ratioP2;P2;SDS_P1;SDS_P2;PMS_P1;PMS_P2;Temp;Humidity;BMP_temperature;BMP_pressure;BME280_temperature;BME280_humidity;BME280_pressure;Samples;Min_cycle;Max_cycle;Signal;HPM_P1;HPM_P2
2021/12/06 00:00:17;;;;;;;;;;;4.40;98.40;;;;;;4998133;28;20336;-80
2021/12/06 00:02:44;;;;;;;;;;;4.40;98.40;;;;;;5002448;28;19933;-80
2021/12/06 00:05:11;;;;;;;;;;;4.30;98.30;;;;;;4999654;28;20366;-80
2021/12/06 00:07:38;;;;;;;;;;;4.40;98.40;;;;;;5002479;28;19925;-80
2021/12/06 00:10:05;;;;;;;;;;;4.40;98.40;;;;;;5002074;28;20718;-80
2021/12/06 00:12:33;;;;;;;;;;;4.40;98.40;;;;;;5005102;28;19932;-80
2021/12/06 00:14:59;;;;;;;;;;;4.30;98.30;;;;;;5004391;28;19921;-79
2021/12/06 00:17:26;;;;;;;;;;;4.40;98.40;;;;;;5006031;28;20393;-80
2021/12/06 00:19:53;;;;;;;;;;;4.30;98.40;;;;;;5007919;28;19929;-80
2021/12/06 00:22:23;;;;;;;;;;;4.30;98.40;;;;;;5003258;28;19925;-80
2021/12/06 00:24:50;;;;;;;;;;;4.30;98.40;;;;;;5006368;28;19929;-80
2021/12/06 00:27:16;;;;;;;;;;;4.30;98.40;;;;;;5001418;28;19925;-80
2021/12/06 00:29:45;;;;;;;;;;;4.30;98.40;;;;;;4999287;28;19932;-80
2021/12/06 00:32:11;;;;;;;;;;;4.30;98.40;;;;;;5000373;28;20550;-80
2021/12/06 00:34:39;;;;;;;;;;;4.30;98.40;;;;;;5005751;28;19932;-80
2021/12/06 00:37:17;;;;;;;;;;;4.30;98.40;;;;;;5004133;28;20008;-80
2021/12/06 00:39:43;;;;;;;;;;;4.30;98.40;;;;;;5001664;28;19926;-80
2021/12/06 00:42:11;;;;;;;;;;;4.30;98.40;;;;;;5009520;28;19932;-80
2021/12/06 00:44:37;;;;;;;;;;;4.30;98.40;;;;;;5002242;28;20019;-80
2021/12/06 00:47:06;;;;;;;;;;;4.30;98.40;;;;;;5012460;28;19929;-80
2021/12/06 00:49:33;;;;;;;;;;;4.30;98.40;;;;;;5002303;28;19964;-79
2021/12/06 00:51:59;;;;;;;;;;;4.30;98.70;;;;;;4999114;28;19925;-80
2021/12/06 00:54:26;;;;;;;;;;;4.30;98.40;;;;;;4999756;28;20288;-80
2021/12/06 00:56:52;;;;;;;;;;;4.30;98.40;;;;;;5007125;28;19925;-80
2021/12/06 00:59:19;;;;;;;;;;;4.20;98.40;;;;;;5001970;28;19929;-80
2021/12/06 01:01:46;;;;;;;;;;;4.30;98.40;;;;;;4995043;28;19933;-80
2021/12/06 01:04:15;;;;;;;;;;;4.20;98.40;;;;;;4998867;28;20299;-80
2021/12/06 01:06:42;;;;;;;;;;;4.20;98.40;;;;;;5006849;28;20282;-80
2021/12/06 01:09:08;;;;;;;;;;;4.20;98.40;;;;;;5002554;28;19925;-79
2021/12/06 01:11:35;;;;;;;;;;;4.20;98.40;;;;;;5004263;28;19932;-80
2021/12/06 01:14:03;;;;;;;;;;;4.20;98.40;;;;;;5002582;28;19925;-80
2021/12/06 01:16:30;;;;;;;;;;;4.20;98.40;;;;;;4999449;28;20419;-80
2021/12/06 01:18:56;;;;;;;;;;;4.20;98.40;;;;;;5009987;28;19969;-79
2021/12/06 01:21:30;;;;;;;;;;;4.20;98.40;;;;;;5001123;28;19929;-80
2021/12/06 01:23:59;;;;;;;;;;;4.20;98.50;;;;;;5000888;28;19984;-80
2021/12/06 01:29:36;;;;;;;;;;;4.20;98.50;;;;;;5001863;28;20425;-80
2021/12/06 01:32:12;;;;;;;;;;;4.20;98.50;;;;;;4993888;28;19926;-80
2021/12/06 01:40:14;;;;;;;;;;;4.20;98.50;;;;;;4967472;28;19926;-80
2021/12/06 01:42:40;;;;;;;;;;;4.20;98.50;;;;;;4997479;28;19925;-79
2021/12/06 01:45:08;;;;;;;;;;;4.20;98.50;;;;;;4996935;28;20221;-79
2021/12/06 01:47:35;;;;;;;;;;;4.20;98.50;;;;;;5006343;28;19929;-80
2021/12/06 01:50:03;;;;;;;;;;;4.10;98.50;;;;;;4999131;28;20385;-80
2021/12/06 01:52:33;;;;;;;;;;;4.10;98.50;;;;;;5005601;28;19926;-80
2021/12/06 01:54:59;;;;;;;;;;;4.10;98.50;;;;;;5003775;28;19937;-80
2021/12/06 01:57:27;;;;;;;;;;;4.10;98.50;;;;;;5004147;28;19933;-80
2021/12/06 01:59:54;;;;;;;;;;;4.20;98.50;;;;;;5003930;28;19933;-79
2021/12/06 02:02:21;;;;;;;;;;;4.10;98.50;;;;;;5004065;28;19921;-80
2021/12/06 02:04:48;;;;;;;;;;;4.10;98.50;;;;;;5003872;28;19925;-80
2021/12/06 02:07:16;;;;;;;;;;;4.10;98.50;;;;;;5008357;28;20478;-80
2021/12/06 02:09:44;;;;;;;;;;;4.10;98.50;;;;;;5004873;28;19925;-79
2021/12/06 02:12:12;;;;;;;;;;;4.10;98.50;;;;;;5006897;28;19926;-79
2021/12/06 02:14:47;;;;;;;;;;;4.10;98.50;;;;;;5001997;28;20451;-81
2021/12/06 02:17:18;;;;;;;;;;;4.10;98.50;;;;;;4999196;28;19936;-80
2021/12/06 02:19:47;;;;;;;;;;;4.10;98.50;;;;;;5010971;28;19951;-79
2021/12/06 02:22:18;;;;;;;;;;;4.10;98.50;;;;;;5004644;28;20492;-79
2021/12/06 02:24:45;;;;;;;;;;;4.10;98.50;;;;;;5005752;28;20442;-80
2021/12/06 02:27:13;;;;;;;;;;;4.10;98.50;;;;;;5003206;28;19930;-80
2021/12/06 02:29:40;;;;;;;;;;;4.10;98.50;;;;;;5010015;28;19932;-80
2021/12/06 02:32:10;;;;;;;;;;;4.10;98.50;;;;;;5003134;28;19925;-79
2021/12/06 02:34:38;;;;;;;;;;;4.10;98.50;;;;;;5005969;28;19929;-80
2021/12/06 02:37:05;;;;;;;;;;;4.10;98.50;;;;;;5005532;28;19932;-80
2021/12/06 02:39:33;;;;;;;;;;;4.10;98.50;;;;;;5003916;28;19933;-80
2021/12/06 02:42:00;;;;;;;;;;;4.10;98.50;;;;;;5011508;28;19925;-80
2021/12/06 02:44:27;;;;;;;;;;;4.10;98.50;;;;;;5004892;28;20381;-80
2021/12/06 02:46:54;;;;;;;;;;;4.10;98.50;;;;;;5001604;28;19953;-79
2021/12/06 02:49:21;;;;;;;;;;;4.00;98.50;;;;;;5000761;28;19925;-80
2021/12/06 02:51:47;;;;;;;;;;;4.10;98.50;;;;;;5005816;28;19925;-80
2021/12/06 02:54:14;;;;;;;;;;;4.10;98.60;;;;;;5003687;28;19925;-80
2021/12/06 02:56:53;;;;;;;;;;;4.10;98.60;;;;;;5008367;28;19925;-80
2021/12/06 02:59:21;;;;;;;;;;;4.10;98.60;;;;;;5004109;28;20040;-80
2021/12/06 03:01:49;;;;;;;;;;;4.10;98.60;;;;;;5005615;28;19935;-80
2021/12/06 03:04:16;;;;;;;;;;;4.10;98.60;;;;;;4998675;28;19929;-80
2021/12/06 03:06:42;;;;;;;;;;;4.00;98.60;;;;;;5005935;28;19936;-80
2021/12/06 03:09:11;;;;;;;;;;;4.00;98.50;;;;;;5002221;28;20019;-80
2021/12/06 03:11:39;;;;;;;;;;;4.00;98.50;;;;;;5001689;28;20080;-80
2021/12/06 03:14:08;;;;;;;;;;;4.10;98.90;;;;;;5004151;28;19952;-80
2021/12/06 03:16:35;;;;;;;;;;;4.00;98.50;;;;;;5001210;28;19924;-80
2021/12/06 03:19:01;;;;;;;;;;;4.00;98.60;;;;;;4997683;28;19929;-80
2021/12/06 03:21:28;;;;;;;;;;;4.00;98.50;;;;;;5005114;28;19936;-80
2021/12/06 03:23:56;;;;;;;;;;;4.00;98.50;;;;;;4999301;28;19925;-80
2021/12/06 03:26:22;;;;;;;;;;;4.00;98.60;;;;;;4999364;28;19925;-80
2021/12/06 03:28:49;;;;;;;;;;;4.00;98.50;;;;;;5001503;28;19932;-80
2021/12/06 03:31:17;;;;;;;;;;;4.00;98.50;;;;;;4998181;28;19925;-80
2021/12/06 03:33:45;;;;;;;;;;;4.00;98.50;;;;;;5004861;28;20347;-80
2021/12/06 03:36:12;;;;;;;;;;;4.00;98.50;;;;;;5002653;28;19933;-80
2021/12/06 03:38:39;;;;;;;;;;;4.00;98.50;;;;;;5003326;28;19925;-80
2021/12/06 03:41:07;;;;;;;;;;;4.00;98.50;;;;;;5001709;28;19972;-80
2021/12/06 03:43:34;;;;;;;;;;;4.00;98.60;;;;;;5006486;28;19947;-79
2021/12/06 03:46:01;;;;;;;;;;;4.00;98.60;;;;;;5002767;28;20297;-80
2021/12/06 03:48:29;;;;;;;;;;;4.00;98.50;;;;;;5006267;28;19925;-80
2021/12/06 03:50:56;;;;;;;;;;;4.00;98.60;;;;;;5005246;28;19921;-80
2021/12/06 03:53:22;;;;;;;;;;;4.00;98.60;;;;;;5011362;28;19925;-80
2021/12/06 03:55:49;;;;;;;;;;;4.00;98.50;;;;;;5001675;28;19929;-80
2021/12/06 03:58:16;;;;;;;;;;;4.00;98.60;;;;;;4999532;28;20365;-80
2021/12/06 04:00:42;;;;;;;;;;;4.00;98.50;;;;;;4997977;28;20373;-80
2021/12/06 04:03:10;;;;;;;;;;;4.00;98.60;;;;;;5004722;28;19925;-80
2021/12/06 04:05:38;;;;;;;;;;;4.00;98.60;;;;;;4999561;28;20318;-80
2021/12/06 04:08:05;;;;;;;;;;;4.00;98.60;;;;;;5003296;28;19925;-80
2021/12/06 04:10:32;;;;;;;;;;;4.00;98.60;;;;;;5001720;28;19925;-80
2021/12/06 04:12:59;;;;;;;;;;;4.00;98.60;;;;;;5002330;28;19921;-80
2021/12/06 04:15:28;;;;;;;;;;;4.00;98.60;;;;;;4999034;28;20667;-80
2021/12/06 04:17:55;;;;;;;;;;;4.00;98.60;;;;;;5005220;28;19929;-81
2021/12/06 04:20:22;;;;;;;;;;;4.00;98.60;;;;;;5002917;28;19925;-80
2021/12/06 04:22:50;;;;;;;;;;;4.00;98.60;;;;;;5001319;28;19925;-80
2021/12/06 04:25:18;;;;;;;;;;;4.00;98.60;;;;;;5003052;28;20676;-81
2021/12/06 04:27:51;;;;;;;;;;;4.00;98.60;;;;;;5001998;28;19929;-80
2021/12/06 04:30:18;;;;;;;;;;;4.00;98.60;;;;;;5009784;28;19964;-80
2021/12/06 04:32:44;;;;;;;;;;;3.90;98.60;;;;;;5001223;28;20381;-80
2021/12/06 04:35:11;;;;;;;;;;;4.00;98.60;;;;;;5004435;28;20588;-80
2021/12/06 04:37:38;;;;;;;;;;;4.00;98.60;;;;;;5001397;28;20527;-80
2021/12/06 04:40:06;;;;;;;;;;;4.00;98.60;;;;;;5001719;28;19925;-80
2021/12/06 04:42:33;;;;;;;;;;;4.00;98.60;;;;;;5004458;28;20649;-80
2021/12/06 04:45:00;;;;;;;;;;;3.90;98.50;;;;;;5003966;28;19931;-80
2021/12/06 04:47:26;;;;;;;;;;;4.00;98.60;;;;;;4999592;28;19930;-80
2021/12/06 04:49:53;;;;;;;;;;;4.00;98.60;;;;;;5002074;28;19925;-81
2021/12/06 04:52:20;;;;;;;;;;;3.90;98.50;;;;;;5002112;28;19925;-80
2021/12/06 04:54:48;;;;;;;;;;;3.90;98.50;;;;;;5005297;28;19936;-80
2021/12/06 04:57:18;;;;;;;;;;;3.90;98.50;;;;;;5007798;28;19956;-80
2021/12/06 04:59:47;;;;;;;;;;;3.90;98.50;;;;;;4999541;28;19953;-80
2021/12/06 05:02:16;;;;;;;;;;;3.90;98.50;;;;;;5006672;28;19929;-80
2021/12/06 05:04:47;;;;;;;;;;;3.90;98.50;;;;;;4995708;28;19948;-80
2021/12/06 05:07:16;;;;;;;;;;;3.90;98.50;;;;;;5001788;28;19930;-80
2021/12/06 05:09:43;;;;;;;;;;;3.90;98.50;;;;;;5002053;28;19932;-80
2021/12/06 05:12:12;;;;;;;;;;;3.90;98.50;;;;;;5006212;28;19930;-80
2021/12/06 05:14:40;;;;;;;;;;;3.90;98.50;;;;;;5000812;28;20312;-80
2021/12/06 05:17:07;;;;;;;;;;;3.90;98.50;;;;;;5005971;28;20403;-80
2021/12/06 05:19:34;;;;;;;;;;;3.90;98.50;;;;;;5010246;28;19925;-81
2021/12/06 05:22:00;;;;;;;;;;;3.90;98.50;;;;;;5000585;28;19932;-80
2021/12/06 05:24:27;;;;;;;;;;;3.90;98.60;;;;;;4996559;28;19932;-80
2021/12/06 05:26:55;;;;;;;;;;;3.90;98.60;;;;;;5004060;28;20619;-79
2021/12/06 05:29:25;;;;;;;;;;;3.90;98.60;;;;;;5003587;28;19925;-80
2021/12/06 05:31:56;;;;;;;;;;;3.90;98.60;;;;;;4999638;28;20038;-80
2021/12/06 05:34:29;;;;;;;;;;;3.90;98.50;;;;;;5003490;28;19926;-80
2021/12/06 05:36:56;;;;;;;;;;;3.90;98.60;;;;;;5002306;28;19949;-81
2021/12/06 05:39:23;;;;;;;;;;;3.90;98.50;;;;;;5000829;28;20003;-80
2021/12/06 05:41:49;;;;;;;;;;;3.90;98.60;;;;;;5003188;28;19936;-80
2021/12/06 05:44:16;;;;;;;;;;;3.90;98.50;;;;;;5001308;28;19940;-80
2021/12/06 05:46:43;;;;;;;;;;;3.90;98.60;;;;;;5007953;28;19944;-80
2021/12/06 05:49:10;;;;;;;;;;;3.90;98.60;;;;;;5005697;28;19925;-80
2021/12/06 05:51:37;;;;;;;;;;;3.90;98.60;;;;;;5005276;28;19937;-80
2021/12/06 05:54:04;;;;;;;;;;;3.90;98.60;;;;;;5006481;28;19926;-80
2021/12/06 05:56:30;;;;;;;;;;;3.90;98.60;;;;;;5014093;28;19936;-80
2021/12/06 05:58:57;;;;;;;;;;;3.90;98.60;;;;;;4998151;28;19932;-80
2021/12/06 06:01:29;;;;;;;;;;;3.90;98.60;;;;;;4997786;28;19925;-80
2021/12/06 06:04:00;;;;;;;;;;;3.90;98.60;;;;;;5009404;28;20518;-80
2021/12/06 06:06:29;;;;;;;;;;;3.90;98.60;;;;;;5008481;28;19952;-80
2021/12/06 06:08:55;;;;;;;;;;;3.90;98.60;;;;;;5000084;28;19932;-81
2021/12/06 06:11:22;;;;;;;;;;;3.90;98.60;;;;;;5007840;28;19933;-80
2021/12/06 06:13:48;;;;;;;;;;;3.90;98.60;;;;;;5010478;28;19929;-77
2021/12/06 06:16:18;;;;;;;;;;;3.90;98.60;;;;;;5002907;28;20388;-80
2021/12/06 06:18:44;;;;;;;;;;;3.90;98.40;;;;;;5013911;28;19925;-80
2021/12/06 06:21:11;;;;;;;;;;;3.90;98.40;;;;;;5007155;28;19971;-80
2021/12/06 06:23:39;;;;;;;;;;;3.80;98.40;;;;;;5013458;28;19929;-80
2021/12/06 06:26:05;;;;;;;;;;;3.90;98.50;;;;;;5009548;28;19932;-80
2021/12/06 06:28:32;;;;;;;;;;;3.90;98.50;;;;;;5006118;28;19925;-80
2021/12/06 06:30:58;;;;;;;;;;;3.80;98.50;;;;;;5000154;28;19926;-80
2021/12/06 06:33:25;;;;;;;;;;;3.90;98.50;;;;;;5004716;28;19925;-80
2021/12/06 06:35:52;;;;;;;;;;;3.90;98.50;;;;;;5007767;28;19926;-79
2021/12/06 06:38:19;;;;;;;;;;;3.80;98.50;;;;;;5007826;28;19926;-80
2021/12/06 06:40:47;;;;;;;;;;;3.90;98.50;;;;;;5003832;28;19951;-79
2021/12/06 06:43:14;;;;;;;;;;;3.90;98.50;;;;;;5011519;28;19925;-79
2021/12/06 06:45:40;;;;;;;;;;;3.90;98.50;;;;;;5001827;28;19925;-79
2021/12/06 06:48:07;;;;;;;;;;;3.90;98.50;;;;;;5007304;28;19940;-80
2021/12/06 06:50:34;;;;;;;;;;;3.90;98.40;;;;;;4999829;28;19926;-80
2021/12/06 06:53:01;;;;;;;;;;;3.90;98.40;;;;;;5005903;28;19925;-79
2021/12/06 06:55:27;;;;;;;;;;;3.90;98.40;;;;;;5010350;28;19925;-80
2021/12/06 06:57:55;;;;;;;;;;;3.90;98.40;;;;;;5007168;28;19937;-79
2021/12/06 07:00:24;;;;;;;;;;;3.90;98.40;;;;;;5000549;28;19925;-79
2021/12/06 07:02:50;;;;;;;;;;;3.90;98.40;;;;;;5010158;28;19929;-79
2021/12/06 07:05:17;;;;;;;;;;;3.90;98.40;;;;;;5007827;28;19925;-79
2021/12/06 07:07:44;;;;;;;;;;;3.90;98.40;;;;;;5005539;28;19925;-81
2021/12/06 07:10:11;;;;;;;;;;;3.90;98.40;;;;;;5001779;28;19925;-79
2021/12/06 07:12:44;;;;;;;;;;;3.90;98.40;;;;;;5010028;28;19956;-79
2021/12/06 07:15:13;;;;;;;;;;;3.90;98.40;;;;;;5002957;28;20015;-80
2021/12/06 07:17:40;;;;;;;;;;;3.90;98.40;;;;;;5012636;28;20391;-81
2021/12/06 07:20:07;;;;;;;;;;;3.90;98.30;;;;;;5005349;28;19929;-79
2021/12/06 07:22:34;;;;;;;;;;;3.90;98.30;;;;;;5006147;28;19925;-80
2021/12/06 07:25:00;;;;;;;;;;;3.90;98.40;;;;;;5010437;28;19932;-80
2021/12/06 07:27:27;;;;;;;;;;;3.90;98.30;;;;;;5009486;28;19925;-80
2021/12/06 07:29:53;;;;;;;;;;;3.90;98.30;;;;;;5004057;28;19936;-80
2021/12/06 07:32:21;;;;;;;;;;;3.90;98.30;;;;;;4997147;28;19948;-80
2021/12/06 07:34:50;;;;;;;;;;;3.90;98.30;;;;;;5004123;28;19952;-80
2021/12/06 07:37:16;;;;;;;;;;;3.90;98.30;;;;;;4997951;28;20301;-79
2021/12/06 07:39:43;;;;;;;;;;;3.80;98.30;;;;;;5005257;28;19936;-79
2021/12/06 07:42:12;;;;;;;;;;;3.90;98.30;;;;;;5003353;28;19932;-80
2021/12/06 07:44:39;;;;;;;;;;;3.90;98.30;;;;;;4999722;28;20682;-78
2021/12/06 07:47:05;;;;;;;;;;;3.90;98.30;;;;;;5001278;28;19925;-79
2021/12/06 07:49:33;;;;;;;;;;;3.90;98.30;;;;;;5003448;28;19925;-80
2021/12/06 07:52:00;;;;;;;;;;;3.90;98.30;;;;;;5005955;28;19928;-79
2021/12/06 07:54:26;;;;;;;;;;;3.90;98.30;;;;;;5004575;28;19932;-79
2021/12/06 07:56:53;;;;;;;;;;;3.90;98.30;;;;;;5008003;28;19925;-80
2021/12/06 07:59:20;;;;;;;;;;;3.90;98.40;;;;;;4997461;28;19925;-79
2021/12/06 08:01:46;;;;;;;;;;;3.90;98.30;;;;;;5005290;28;20531;-79
2021/12/06 08:04:13;;;;;;;;;;;3.90;98.30;;;;;;5007332;28;20521;-79
2021/12/06 08:06:41;;;;;;;;;;;3.90;98.30;;;;;;5007519;28;19928;-79
2021/12/06 08:09:07;;;;;;;;;;;3.90;98.30;;;;;;5003875;28;19933;-80
2021/12/06 08:11:34;;;;;;;;;;;3.90;98.30;;;;;;5005045;28;19925;-79
2021/12/06 08:14:01;;;;;;;;;;;3.90;98.30;;;;;;4996863;28;19925;-80
2021/12/06 08:16:30;;;;;;;;;;;3.90;98.30;;;;;;4990887;28;19932;-80
2021/12/06 08:18:58;;;;;;;;;;;3.90;98.30;;;;;;4995022;28;19937;-79
2021/12/06 08:21:26;;;;;;;;;;;3.90;98.30;;;;;;4995428;28;19925;-77
2021/12/06 08:23:55;;;;;;;;;;;3.90;98.30;;;;;;4997473;28;19925;-81
2021/12/06 08:26:22;;;;;;;;;;;3.90;98.20;;;;;;4999310;28;19926;-78
2021/12/06 08:28:49;;;;;;;;;;;3.90;98.20;;;;;;5007797;28;20415;-79
2021/12/06 08:31:18;;;;;;;;;;;3.90;98.20;;;;;;5000481;28;19936;-81
2021/12/06 08:33:45;;;;;;;;;;;3.80;98.20;;;;;;5005488;28;20020;-80
2021/12/06 08:36:12;;;;;;;;;;;3.90;98.20;;;;;;5004342;28;19929;-79
2021/12/06 08:38:39;;;;;;;;;;;3.90;98.20;;;;;;5000096;28;19929;-78
2021/12/06 08:41:08;;;;;;;;;;;3.90;98.20;;;;;;5004187;28;20251;-79
2021/12/06 08:43:35;;;;;;;;;;;3.90;98.20;;;;;;5002747;28;20570;-80
2021/12/06 08:46:04;;;;;;;;;;;3.90;98.20;;;;;;5005007;28;20024;-81
2021/12/06 08:48:32;;;;;;;;;;;3.90;98.20;;;;;;5010923;28;19925;-80
2021/12/06 08:51:00;;;;;;;;;;;3.80;98.20;;;;;;5000373;28;19928;-78
2021/12/06 08:53:27;;;;;;;;;;;3.90;98.20;;;;;;5002259;28;19925;-78
2021/12/06 08:55:54;;;;;;;;;;;3.90;98.20;;;;;;5002222;28;20681;-79
2021/12/06 08:58:22;;;;;;;;;;;3.90;98.20;;;;;;5002134;28;20266;-80
2021/12/06 09:00:49;;;;;;;;;;;3.90;98.20;;;;;;4999757;28;19925;-79
2021/12/06 09:03:15;;;;;;;;;;;3.90;98.20;;;;;;5002013;28;19926;-80
2021/12/06 09:05:44;;;;;;;;;;;3.90;98.20;;;;;;5001114;28;19929;-79
2021/12/06 09:08:10;;;;;;;;;;;3.90;98.20;;;;;;4995741;28;19929;-79
2021/12/06 09:10:37;;;;;;;;;;;3.90;98.20;;;;;;5004943;28;19925;-79
2021/12/06 09:13:04;;;;;;;;;;;3.90;98.20;;;;;;5004753;28;19926;-78
2021/12/06 09:15:32;;;;;;;;;;;3.90;98.20;;;;;;4997284;28;19932;-78
2021/12/06 09:17:59;;;;;;;;;;;3.90;98.10;;;;;;5008773;28;19936;-78
2021/12/06 09:20:28;;;;;;;;;;;3.90;98.10;;;;;;5001649;28;19925;-79
2021/12/06 09:22:55;;;;;;;;;;;3.90;98.10;;;;;;5002243;28;19925;-78
2021/12/06 09:25:21;;;;;;;;;;;3.90;98.10;;;;;;4999996;28;19929;-78
2021/12/06 09:27:48;;;;;;;;;;;3.90;98.10;;;;;;5002864;28;19932;-79
2021/12/06 09:30:17;;;;;;;;;;;3.90;98.10;;;;;;5000350;28;19932;-78
2021/12/06 09:32:46;;;;;;;;;;;3.90;98.10;;;;;;5005281;28;19929;-78
2021/12/06 09:35:17;;;;;;;;;;;4.00;98.10;;;;;;5000033;28;19933;-79
2021/12/06 09:37:44;;;;;;;;;;;3.90;98.10;;;;;;5002562;28;19956;-80
2021/12/06 09:40:11;;;;;;;;;;;4.00;98.10;;;;;;5000679;28;19932;-79
2021/12/06 09:42:40;;;;;;;;;;;4.00;98.10;;;;;;5006782;28;19960;-80
2021/12/06 09:45:09;;;;;;;;;;;4.00;98.10;;;;;;4996741;28;19926;-78
2021/12/06 09:47:36;;;;;;;;;;;4.00;98.10;;;;;;5002132;28;19929;-78
2021/12/06 09:50:05;;;;;;;;;;;4.00;98.00;;;;;;5001907;28;19932;-79
2021/12/06 09:52:32;;;;;;;;;;;4.00;98.00;;;;;;4999819;28;19922;-78
2021/12/06 09:54:58;;;;;;;;;;;4.00;98.00;;;;;;4998090;28;19925;-77
2021/12/06 09:57:25;;;;;;;;;;;4.10;98.00;;;;;;5002093;28;19936;-79
2021/12/06 09:59:52;;;;;;;;;;;4.10;98.00;;;;;;5001918;28;19933;-79
2021/12/06 10:02:20;;;;;;;;;;;4.10;98.00;;;;;;5003687;28;19951;-79
2021/12/06 10:04:50;;;;;;;;;;;4.10;98.00;;;;;;5002781;28;20509;-79
2021/12/06 10:07:19;;;;;;;;;;;4.10;97.90;;;;;;5000849;28;19981;-80
2021/12/06 10:09:46;;;;;;;;;;;4.20;97.90;;;;;;5010488;28;20343;-79
2021/12/06 10:12:15;;;;;;;;;;;4.20;97.90;;;;;;5005634;28;20024;-78
2021/12/06 10:14:42;;;;;;;;;;;4.20;97.90;;;;;;5011461;28;19932;-80
2021/12/06 10:17:08;;;;;;;;;;;4.20;97.80;;;;;;5005590;28;19926;-80
2021/12/06 10:19:35;;;;;;;;;;;4.20;97.80;;;;;;5009576;28;19921;-79
2021/12/06 10:22:02;;;;;;;;;;;4.20;97.70;;;;;;5001847;28;20400;-79
2021/12/06 10:24:31;;;;;;;;;;;4.20;97.70;;;;;;5003883;28;20472;-79
2021/12/06 10:27:06;;;;;;;;;;;4.30;97.70;;;;;;5003758;28;19932;-79
2021/12/06 10:29:35;;;;;;;;;;;4.30;97.60;;;;;;5001857;28;19933;-80
2021/12/06 10:32:02;;;;;;;;;;;4.30;97.60;;;;;;4998060;28;19933;-78
2021/12/06 10:34:29;;;;;;;;;;;4.30;97.60;;;;;;5008121;28;20596;-80
2021/12/06 10:36:56;;;;;;;;;;;4.30;97.50;;;;;;5006387;28;19931;-80
2021/12/06 10:39:23;;;;;;;;;;;4.30;97.50;;;;;;5002696;28;19929;-79
2021/12/06 10:41:52;;;;;;;;;;;4.40;97.50;;;;;;5007980;28;19929;-79
2021/12/06 10:44:19;;;;;;;;;;;4.40;97.50;;;;;;5009508;28;20495;-79
2021/12/06 10:46:48;;;;;;;;;;;4.40;97.50;;;;;;5007298;28;19933;-80
2021/12/06 10:49:16;;;;;;;;;;;4.40;97.50;;;;;;5006452;28;19960;-79
2021/12/06 10:51:43;;;;;;;;;;;4.40;97.40;;;;;;5001704;28;19956;-80
2021/12/06 10:54:17;;;;;;;;;;;4.40;97.40;;;;;;5007011;28;19957;-79
2021/12/06 10:56:47;;;;;;;;;;;4.40;97.40;;;;;;5004307;28;19936;-80
2021/12/06 10:59:15;;;;;;;;;;;4.40;97.40;;;;;;5005137;28;19929;-81
2021/12/06 11:01:43;;;;;;;;;;;4.40;97.40;;;;;;5003453;28;19925;-80
2021/12/06 11:04:16;;;;;;;;;;;4.40;97.40;;;;;;5001959;28;19925;-79
2021/12/06 11:06:44;;;;;;;;;;;4.40;97.30;;;;;;5000741;28;19936;-79
2021/12/06 11:09:12;;;;;;;;;;;4.40;97.30;;;;;;5005496;28;19940;-80
2021/12/06 11:11:40;;;;;;;;;;;4.50;97.40;;;;;;5007658;28;19933;-79
2021/12/06 11:14:08;;;;;;;;;;;4.50;97.40;;;;;;5001080;28;19925;-79
2021/12/06 11:16:38;;;;;;;;;;;4.40;97.30;;;;;;5000122;28;20526;-80
2021/12/06 11:19:06;;;;;;;;;;;4.40;97.30;;;;;;5004760;28;19926;-80
2021/12/06 11:21:35;;;;;;;;;;;4.50;97.30;;;;;;5003286;28;19941;-79
2021/12/06 11:24:06;;;;;;;;;;;4.50;97.30;;;;;;5000278;28;19936;-81
2021/12/06 11:26:35;;;;;;;;;;;4.50;97.30;;;;;;5005894;28;19936;-81
2021/12/06 11:29:05;;;;;;;;;;;4.50;97.30;;;;;;5004297;28;19933;-82
2021/12/06 11:31:32;;;;;;;;;;;4.50;97.30;;;;;;4999406;28;19924;-81
2021/12/06 11:34:01;;;;;;;;;;;4.50;97.20;;;;;;4998942;28;19956;-80
2021/12/06 11:36:30;;;;;;;;;;;4.50;97.60;;;;;;5004437;28;20386;-80
2021/12/06 11:39:01;;;;;;;;;;;4.50;97.20;;;;;;5004446;28;19948;-80
2021/12/06 11:41:27;;;;;;;;;;;4.50;97.30;;;;;;5004252;28;19948;-80
2021/12/06 11:43:54;;;;;;;;;;;4.60;97.20;;;;;;4999272;28;20696;-79
2021/12/06 11:46:27;;;;;;;;;;;4.60;97.20;;;;;;5004334;28;19925;-80
2021/12/06 11:48:53;;;;;;;;;;;4.60;97.20;;;;;;4998418;28;19925;-81
2021/12/06 11:51:23;;;;;;;;;;;4.60;97.20;;;;;;5004177;28;19925;-78
2021/12/06 11:53:51;;;;;;;;;;;4.60;97.20;;;;;;4999657;28;20002;-79
2021/12/06 11:56:18;;;;;;;;;;;4.60;97.20;;;;;;4996762;28;19929;-76
2021/12/06 11:58:47;;;;;;;;;;;4.60;97.20;;;;;;4999958;28;19964;-77
2021/12/06 12:01:15;;;;;;;;;;;4.60;97.10;;;;;;5006908;28;19928;-78
2021/12/06 12:03:43;;;;;;;;;;;4.60;97.10;;;;;;4994692;28;19932;-78
2021/12/06 12:06:28;;;;;;;;;;;4.70;97.10;;;;;;5005792;28;20301;-78
2021/12/06 12:09:05;;;;;;;;;;;4.60;97.10;;;;;;5002182;28;19999;-78
2021/12/06 12:11:32;;;;;;;;;;;4.60;97.00;;;;;;5012636;28;20297;-79
2021/12/06 12:14:10;;;;;;;;;;;4.70;97.00;;;;;;5013352;28;20691;-79
2021/12/06 12:16:36;;;;;;;;;;;4.70;97.00;;;;;;5005147;28;19932;-78
2021/12/06 12:19:03;;;;;;;;;;;4.70;97.00;;;;;;5003093;28;20664;-80
2021/12/06 12:21:31;;;;;;;;;;;4.70;96.90;;;;;;5003319;28;19925;-79
2021/12/06 12:23:59;;;;;;;;;;;4.70;96.90;;;;;;5002048;28;19925;-80
2021/12/06 12:26:26;;;;;;;;;;;4.80;96.90;;;;;;5007745;28;19925;-78
2021/12/06 12:29:00;;;;;;;;;;;4.80;96.80;;;;;;5003805;28;20032;-78
2021/12/06 12:31:28;;;;;;;;;;;4.80;96.70;;;;;;5003353;28;19929;-79
2021/12/06 12:33:55;;;;;;;;;;;4.80;96.70;;;;;;4999847;28;20027;-78
2021/12/06 12:36:23;;;;;;;;;;;4.80;96.60;;;;;;5005308;28;19947;-78
2021/12/06 12:38:54;;;;;;;;;;;4.80;96.60;;;;;;5003395;28;19929;-78
2021/12/06 12:41:21;;;;;;;;;;;4.80;96.60;;;;;;5005296;28;20369;-78
2021/12/06 12:43:49;;;;;;;;;;;4.90;96.60;;;;;;5002215;28;19926;-78
2021/12/06 12:46:17;;;;;;;;;;;4.90;96.50;;;;;;5011212;28;19925;-77
2021/12/06 12:48:46;;;;;;;;;;;4.80;96.50;;;;;;5008704;28;19922;-78
2021/12/06 12:51:15;;;;;;;;;;;4.80;96.50;;;;;;5001401;28;19938;-79
2021/12/06 12:53:46;;;;;;;;;;;4.90;96.50;;;;;;5002301;28;19936;-78
2021/12/06 12:56:21;;;;;;;;;;;4.90;96.40;;;;;;4998536;28;19932;-77
2021/12/06 12:58:47;;;;;;;;;;;4.90;96.40;;;;;;4998953;28;19933;-78
2021/12/06 13:01:14;;;;;;;;;;;4.90;96.40;;;;;;5005166;28;19925;-78
2021/12/06 13:03:43;;;;;;;;;;;4.90;96.30;;;;;;5002512;28;19944;-78
2021/12/06 13:06:16;;;;;;;;;;;4.90;96.20;;;;;;5002815;28;20040;-78
2021/12/06 13:08:43;;;;;;;;;;;4.90;96.10;;;;;;5000881;28;19932;-78
2021/12/06 13:11:11;;;;;;;;;;;5.00;96.00;;;;;;5002654;28;19949;-79
2021/12/06 13:13:42;;;;;;;;;;;5.00;95.90;;;;;;5007601;28;19929;-78
2021/12/06 13:16:25;;;;;;;;;;;5.00;95.90;;;;;;4998631;28;20430;-78
2021/12/06 13:19:03;;;;;;;;;;;5.00;95.80;;;;;;5006218;28;19932;-78
2021/12/06 13:21:46;;;;;;;;;;;5.00;95.80;;;;;;5001217;28;19925;-78
2021/12/06 13:24:30;;;;;;;;;;;5.00;95.80;;;;;;5002207;28;19936;-78
2021/12/06 13:26:58;;;;;;;;;;;5.00;95.80;;;;;;5009651;28;19957;-78
2021/12/06 13:29:28;;;;;;;;;;;5.00;95.70;;;;;;5005199;28;19925;-78
2021/12/06 13:31:55;;;;;;;;;;;5.10;95.70;;;;;;5001731;28;19929;-78
2021/12/06 13:34:22;;;;;;;;;;;5.10;95.70;;;;;;5002640;28;19933;-79
2021/12/06 13:36:50;;;;;;;;;;;5.10;95.50;;;;;;5002764;28;19933;-78
2021/12/06 13:39:33;;;;;;;;;;;5.20;95.40;;;;;;5002811;28;19925;-79
2021/12/06 13:42:01;;;;;;;;;;;5.30;95.10;;;;;;5003585;28;20388;-77
2021/12/06 13:44:40;;;;;;;;;;;5.30;94.90;;;;;;5001248;28;19937;-78
2021/12/06 13:47:10;;;;;;;;;;;5.40;94.70;;;;;;5006548;28;19925;-78
2021/12/06 13:49:50;;;;;;;;;;;5.50;94.60;;;;;;5000430;28;20764;-78
2021/12/06 13:52:17;;;;;;;;;;;5.50;94.50;;;;;;4998854;28;20404;-78
2021/12/06 13:54:50;;;;;;;;;;;5.50;94.30;;;;;;4998359;28;19925;-78
2021/12/06 13:57:16;;;;;;;;;;;5.60;94.20;;;;;;5004407;28;20539;-78
2021/12/06 13:59:47;;;;;;;;;;;5.60;94.10;;;;;;4999606;28;19925;-78
2021/12/06 14:02:15;;;;;;;;;;;5.60;94.20;;;;;;5005442;28;20376;-78
2021/12/06 14:04:43;;;;;;;;;;;5.60;94.20;;;;;;4998655;28;19931;-78
2021/12/06 14:07:10;;;;;;;;;;;5.60;94.10;;;;;;5001631;28;19929;-78
2021/12/06 14:09:39;;;;;;;;;;;5.60;94.10;;;;;;5003287;28;19936;-77
2021/12/06 14:12:07;;;;;;;;;;;5.60;94.20;;;;;;5006714;28;20300;-78
2021/12/06 14:14:37;;;;;;;;;;;5.60;94.20;;;;;;5006627;28;19936;-79
2021/12/06 14:17:06;;;;;;;;;;;5.60;94.10;;;;;;5007509;28;19969;-78
2021/12/06 14:19:32;;;;;;;;;;;5.60;94.20;;;;;;5009314;28;19936;-78
2021/12/06 14:22:00;;;;;;;;;;;5.60;94.20;;;;;;5010341;28;19945;-79
2021/12/06 14:24:28;;;;;;;;;;;5.60;94.30;;;;;;5005413;28;19936;-78
2021/12/06 14:26:55;;;;;;;;;;;5.50;94.30;;;;;;5003653;28;19937;-78
2021/12/06 14:29:22;;;;;;;;;;;5.50;94.30;;;;;;5008157;28;19925;-78
2021/12/06 14:31:51;;;;;;;;;;;5.40;94.40;;;;;;5007005;28;19931;-78
2021/12/06 14:34:19;;;;;;;;;;;5.40;94.40;;;;;;5005078;28;19929;-78
2021/12/06 14:36:46;;;;;;;;;;;5.30;94.50;;;;;;5005186;28;19925;-78
2021/12/06 14:39:14;;;;;;;;;;;5.30;94.60;;;;;;5006103;28;19929;-80
2021/12/06 14:41:51;;;;;;;;;;;5.30;94.60;;;;;;5007529;28;19926;-78
2021/12/06 14:44:36;;;;;;;;;;;5.30;94.80;;;;;;5004015;28;19972;-78